createdAt,value
2019-02-05T00:01:24.341Z,69.33
2019-02-05T00:03:52.477Z,69.66
2019-02-05T00:06:21.028Z,69.34
2019-02-05T00:08:49.203Z,69.22
2019-02-05T00:11:17.371Z,69.41
2019-02-05T00:13:45.347Z,69.91
2019-02-05T00:16:13.450Z,70.04
2019-02-05T00:18:41.486Z,69.77
2019-02-05T00:21:09.496Z,70.03
2019-02-05T00:23:37.498Z,69.81
2019-02-05T00:26:06.550Z,70.57
2019-02-05T00:28:34.769Z,70.09
2019-02-05T00:31:02.817Z,70.59
2019-02-05T00:33:30.915Z,70.19
2019-02-05T00:35:58.883Z,69.92
2019-02-05T00:38:27.549Z,69.93
2019-02-05T00:40:55.573Z,69.73
2019-02-05T00:43:23.584Z,69.55
2019-02-05T00:45:51.601Z,69.28
2019-02-05T00:48:19.759Z,69.60
2019-02-05T00:50:47.773Z,70.06
2019-02-05T00:53:16.039Z,69.73
2019-02-05T00:55:44.558Z,70.18
2019-02-05T00:58:12.522Z,70.73
2019-02-05T01:00:40.520Z,70.71
2019-02-05T01:03:08.485Z,70.74
2019-02-05T01:05:36.497Z,70.77
2019-02-05T01:08:04.524Z,70.60
2019-02-05T01:10:32.552Z,70.79
2019-02-05T01:13:00.506Z,71.27
2019-02-05T01:15:28.562Z,71.21
2019-02-05T01:17:56.580Z,70.92
2019-02-05T01:20:24.677Z,71.04
2019-02-05T01:22:52.698Z,71.71
2019-02-05T01:25:20.869Z,71.82
2019-02-05T01:27:49.203Z,71.94
2019-02-05T01:30:20.353Z,72.64
2019-02-05T01:32:48.463Z,72.31
2019-02-05T01:35:16.462Z,72.14
2019-02-05T01:37:44.491Z,72.56
2019-02-05T01:40:14.889Z,73.55
2019-02-05T01:42:43.261Z,73.17
2019-02-05T01:45:14.876Z,73.15
2019-02-05T01:47:43.160Z,73.12
2019-02-05T01:50:13.313Z,73.45
2019-02-05T01:52:41.357Z,73.65
2019-02-05T01:55:10.069Z,73.77
2019-02-05T01:57:38.381Z,73.98
2019-02-05T02:00:10.147Z,74.48
2019-02-05T02:02:38.130Z,74.06
2019-02-05T02:05:06.206Z,74.30
2019-02-05T02:07:34.229Z,73.33
2019-02-05T02:10:02.192Z,73.16
2019-02-05T02:12:30.419Z,73.30
2019-02-05T02:14:59.405Z,73.23
2019-02-05T02:17:27.422Z,73.33
2019-02-05T02:19:55.496Z,74.12
2019-02-05T02:22:23.482Z,73.92
2019-02-05T02:24:51.933Z,74.14
2019-02-05T02:27:20.910Z,74.06
2019-02-05T02:29:49.350Z,74.11
2019-02-05T02:32:17.360Z,74.72
2019-02-05T02:34:45.358Z,75.34
2019-02-05T02:37:13.601Z,75.75
2019-02-05T02:39:41.853Z,76.47
2019-02-05T02:42:10.027Z,74.29
2019-02-05T02:44:38.090Z,74.63
2019-02-05T02:47:06.562Z,75.40
2019-02-05T02:49:34.789Z,76.24
2019-02-05T02:52:03.168Z,75.60
2019-02-05T02:54:31.310Z,74.78
2019-02-05T02:57:04.954Z,75.12
2019-02-05T02:59:29.146Z,75.08
2019-02-05T03:01:57.520Z,75.42
2019-02-05T03:04:25.579Z,75.55
2019-02-05T03:06:54.412Z,75.10
2019-02-05T03:09:23.802Z,74.80
2019-02-05T03:11:52.168Z,74.89
2019-02-05T03:14:20.168Z,75.40
2019-02-05T03:16:48.137Z,75.87
2019-02-05T03:19:16.460Z,76.06
2019-02-05T03:21:44.761Z,76.10
2019-02-05T03:24:12.731Z,76.31
2019-02-05T03:26:40.713Z,76.02
2019-02-05T03:29:09.060Z,75.82
2019-02-05T03:31:37.117Z,75.94
2019-02-05T03:34:05.177Z,76.24
2019-02-05T03:36:33.134Z,76.12
2019-02-05T03:39:01.145Z,77.07
2019-02-05T03:41:30.931Z,77.87
2019-02-05T03:43:58.937Z,78.06
2019-02-05T03:46:28.187Z,77.82
2019-02-05T03:48:56.414Z,77.38
2019-02-05T03:52:13.539Z,77.48
2019-02-05T03:55:30.733Z,77.51
2019-02-05T03:58:28.879Z,77.74
2019-02-05T04:02:25.096Z,80.12
2019-02-05T04:05:34.846Z,81.47
2019-02-05T04:08:28.011Z,81.42
2019-02-05T04:12:03.478Z,79.60
2019-02-05T04:15:23.578Z,79.32
2019-02-05T04:18:34.941Z,79.01
2019-02-05T04:22:04.170Z,80.65
2019-02-05T04:25:36.349Z,79.27
2019-02-05T04:28:39.122Z,79.86
2019-02-05T04:31:59.414Z,79.65
2019-02-05T04:35:31.440Z,80.24
2019-02-05T04:38:35.067Z,80.74
2019-02-05T04:41:30.687Z,80.86
2019-02-05T04:44:24.484Z,81.53
2019-02-05T04:47:54.121Z,82.70
2019-02-05T04:51:01.867Z,82.78
2019-02-05T04:54:03.049Z,82.04
2019-02-05T04:57:06.228Z,82.33
2019-02-05T05:00:27.933Z,82.00
2019-02-05T05:04:21.443Z,81.46
2019-02-05T05:07:30.490Z,81.98
2019-02-05T05:10:01.616Z,83.17
2019-02-05T05:12:30.844Z,82.94
2019-02-05T05:14:59.561Z,82.33
2019-02-05T05:17:27.649Z,82.63
2019-02-05T05:19:55.731Z,84.99
2019-02-05T05:22:23.970Z,84.68
2019-02-05T05:24:51.921Z,84.15
2019-02-05T05:27:21.060Z,83.67
2019-02-05T05:29:49.082Z,85.61
2019-02-05T05:32:17.138Z,85.40
2019-02-05T05:34:45.190Z,84.88
2019-02-05T05:37:11.655Z,84.39
2019-02-05T05:39:39.612Z,84.08
2019-02-05T05:42:07.571Z,84.50
2019-02-05T05:44:35.839Z,84.82
2019-02-05T05:47:04.286Z,85.01
2019-02-05T05:49:32.757Z,85.00
2019-02-05T05:52:00.980Z,84.76
2019-02-05T05:54:29.047Z,84.55
2019-02-05T05:56:57.063Z,84.43
2019-02-05T05:59:25.166Z,84.29
2019-02-05T06:01:53.233Z,84.46
2019-02-05T06:04:21.669Z,84.41
2019-02-05T06:06:49.945Z,84.53
2019-02-05T06:09:17.880Z,84.78
2019-02-05T06:11:45.884Z,84.88
2019-02-05T06:14:13.889Z,85.03
2019-02-05T06:16:42.088Z,84.52
2019-02-05T06:19:10.098Z,84.83
2019-02-05T06:21:38.352Z,84.79
2019-02-05T06:24:06.649Z,84.96
2019-02-05T06:26:34.660Z,86.35
2019-02-05T06:29:02.863Z,87.49
2019-02-05T06:31:30.898Z,86.79
2019-02-05T06:33:58.916Z,86.41
2019-02-05T06:36:26.913Z,85.69
2019-02-05T06:38:54.975Z,85.66
2019-02-05T06:41:23.290Z,85.97
2019-02-05T06:43:51.322Z,85.71
2019-02-05T06:46:19.293Z,86.53
2019-02-05T06:48:47.319Z,85.74
2019-02-05T06:51:15.336Z,86.24
2019-02-05T06:53:43.637Z,86.60
2019-02-05T06:56:11.624Z,86.08
2019-02-05T06:58:46.508Z,85.93
2019-02-05T07:01:09.728Z,85.75
2019-02-05T07:03:37.681Z,84.70
2019-02-05T07:06:05.789Z,83.20
2019-02-05T07:08:33.771Z,82.76
2019-02-05T07:11:01.726Z,82.78
2019-02-05T07:13:29.871Z,83.09
2019-02-05T07:15:58.165Z,83.54
2019-02-05T07:18:26.251Z,83.61
2019-02-05T07:20:54.228Z,83.52
2019-02-05T07:23:22.217Z,83.36
2019-02-05T07:25:50.393Z,83.00
2019-02-05T07:28:24.867Z,82.92
2019-02-05T07:30:53.276Z,82.64
2019-02-05T07:33:21.672Z,81.71
2019-02-05T07:35:49.742Z,80.99
2019-02-05T07:38:17.819Z,81.18
2019-02-05T07:40:45.881Z,82.16
2019-02-05T07:43:14.024Z,81.15
2019-02-05T07:45:41.983Z,81.10
2019-02-05T07:48:10.070Z,82.16
2019-02-05T07:50:38.129Z,79.87
2019-02-05T07:53:06.448Z,79.53
2019-02-05T07:55:34.454Z,78.60
2019-02-05T07:58:02.501Z,79.25
2019-02-05T08:00:30.708Z,77.88
2019-02-05T08:02:59.475Z,77.83
2019-02-05T08:05:30.124Z,77.45
2019-02-05T08:07:58.478Z,76.78
2019-02-05T08:10:26.932Z,75.16
2019-02-05T08:12:54.887Z,75.03
2019-02-05T08:15:25.689Z,74.67
2019-02-05T08:17:53.648Z,74.33
2019-02-05T08:20:22.295Z,75.41
2019-02-05T08:22:50.504Z,75.61
2019-02-05T08:25:19.081Z,74.15
2019-02-05T08:27:47.093Z,76.08
2019-02-05T08:30:28.097Z,73.32
2019-02-05T08:32:57.351Z,73.04
2019-02-05T08:35:25.626Z,76.36
2019-02-05T08:37:53.652Z,74.28
2019-02-05T08:40:22.646Z,71.72
2019-02-05T08:42:50.789Z,73.53
2019-02-05T08:45:21.456Z,70.87
2019-02-05T08:47:49.559Z,70.91
2019-02-05T08:50:23.366Z,69.51
2019-02-05T08:52:52.381Z,70.83
2019-02-05T08:55:20.480Z,70.17
2019-02-05T08:57:49.652Z,69.62
2019-02-05T09:00:21.498Z,69.07
2019-02-05T09:02:49.801Z,67.79
2019-02-05T09:05:18.175Z,68.22
2019-02-05T09:07:46.457Z,67.38
2019-02-05T09:10:19.542Z,68.03
2019-02-05T09:12:49.552Z,67.54
2019-02-05T09:15:28.889Z,67.52
2019-02-05T09:17:47.875Z,66.62
2019-02-05T09:20:16.631Z,63.91
2019-02-05T09:22:45.016Z,64.56
2019-02-05T09:25:13.191Z,66.26
2019-02-05T09:27:41.209Z,64.77
2019-02-05T09:30:13.831Z,64.83
2019-02-05T09:32:41.840Z,63.61
2019-02-05T09:35:10.248Z,64.08
2019-02-05T09:37:38.303Z,63.54
2019-02-05T09:40:08.939Z,62.74
2019-02-05T09:42:37.313Z,62.74
2019-02-05T09:45:06.715Z,61.64
2019-02-05T09:47:34.712Z,62.48
2019-02-05T09:50:03.216Z,61.50
2019-02-05T09:52:31.585Z,61.77
2019-02-05T09:54:59.976Z,60.71
2019-02-05T09:57:28.251Z,61.34
2019-02-05T09:59:56.246Z,61.25
2019-02-05T10:02:24.213Z,61.06
2019-02-05T10:04:52.461Z,61.01
2019-02-05T10:07:20.452Z,62.12
2019-02-05T10:09:48.763Z,61.22
2019-02-05T10:12:16.786Z,61.14
2019-02-05T10:14:45.014Z,59.73
2019-02-05T10:17:12.998Z,60.03
2019-02-05T10:19:41.097Z,59.54
2019-02-05T10:22:09.173Z,61.05
2019-02-05T10:24:37.464Z,59.57
2019-02-05T10:27:05.991Z,58.89
2019-02-05T10:29:34.563Z,60.41
2019-02-05T10:32:02.646Z,59.81
2019-02-05T10:34:34.161Z,59.78
2019-02-05T10:37:00.835Z,59.38
2019-02-05T10:39:28.845Z,58.21
2019-02-05T10:41:56.852Z,58.10
2019-02-05T10:44:24.879Z,58.93
2019-02-05T10:46:53.349Z,57.35
2019-02-05T10:49:21.375Z,57.33
2019-02-05T10:51:49.597Z,57.91
2019-02-05T10:54:17.998Z,57.95
2019-02-05T10:56:47.384Z,56.89
2019-02-05T10:59:15.735Z,57.04
2019-02-05T11:01:43.678Z,56.38
2019-02-05T11:04:12.130Z,56.01
2019-02-05T11:06:40.197Z,55.88
2019-02-05T11:09:09.999Z,55.54
2019-02-05T11:11:38.085Z,56.18
2019-02-05T11:14:06.395Z,55.52
2019-02-05T11:16:34.854Z,55.85
2019-02-05T11:19:02.854Z,55.25
2019-02-05T11:21:30.869Z,55.30
2019-02-05T11:24:00.800Z,53.58
2019-02-05T11:26:28.808Z,53.72
2019-02-05T11:28:56.792Z,53.43
2019-02-05T11:31:24.944Z,52.58
2019-02-05T11:33:53.117Z,52.85
2019-02-05T11:36:21.690Z,53.87
2019-02-05T11:38:49.816Z,53.55
2019-02-05T11:41:18.124Z,51.70
2019-02-05T11:43:46.215Z,51.92
2019-02-05T11:46:14.445Z,50.51
2019-02-05T11:48:42.476Z,50.54
2019-02-05T11:51:10.518Z,50.92
2019-02-05T11:53:38.753Z,50.10
2019-02-05T11:56:06.965Z,49.57
2019-02-05T11:58:35.194Z,48.43
2019-02-05T12:01:10.690Z,49.33
2019-02-05T12:03:38.623Z,47.90
2019-02-05T12:06:06.882Z,47.49
2019-02-05T12:08:34.864Z,47.21
2019-02-05T12:11:02.861Z,46.04
2019-02-05T12:13:30.844Z,45.60
2019-02-05T12:15:59.096Z,46.18
2019-02-05T12:18:27.224Z,45.89
2019-02-05T12:20:55.247Z,46.10
2019-02-05T12:23:23.545Z,45.53
2019-02-05T12:25:51.555Z,45.50
2019-02-05T12:28:19.650Z,44.96
2019-02-05T12:30:47.809Z,44.92
2019-02-05T12:33:15.754Z,45.41
2019-02-05T12:35:44.260Z,45.18
2019-02-05T12:38:12.554Z,45.67
2019-02-05T12:40:40.561Z,45.49
2019-02-05T12:43:08.518Z,45.38
2019-02-05T12:45:37.508Z,45.98
2019-02-05T12:48:06.004Z,46.13
2019-02-05T12:50:35.247Z,45.30
2019-02-05T12:53:03.535Z,45.76
2019-02-05T12:55:31.815Z,44.85
2019-02-05T12:58:00.067Z,45.18
2019-02-05T13:00:40.044Z,43.86
2019-02-05T13:03:10.288Z,43.17
2019-02-05T13:05:38.399Z,43.51
2019-02-05T13:08:06.471Z,44.69
2019-02-05T13:10:37.691Z,43.72
2019-02-05T13:13:06.986Z,43.41
2019-02-05T13:15:35.025Z,43.35
2019-02-05T13:18:03.029Z,43.08
2019-02-05T13:20:31.185Z,43.32
2019-02-05T13:23:02.091Z,43.10
2019-02-05T13:25:30.420Z,42.32
2019-02-05T13:27:58.450Z,40.48
2019-02-05T13:30:29.011Z,38.88
2019-02-05T13:32:56.943Z,35.57
2019-02-05T13:35:24.998Z,32.65
2019-02-05T13:37:53.700Z,30.37
2019-02-05T13:40:23.510Z,29.57
2019-02-05T13:42:52.429Z,28.51
2019-02-05T13:45:23.503Z,28.47
2019-02-05T13:47:51.535Z,26.48
2019-02-05T13:50:32.373Z,26.54
2019-02-05T13:52:55.085Z,27.03
2019-02-05T13:55:29.020Z,27.60
2019-02-05T13:57:56.988Z,24.39
2019-02-05T14:00:37.623Z,23.19
2019-02-05T14:03:07.178Z,21.92
2019-02-05T14:05:35.253Z,23.80
2019-02-05T14:08:03.273Z,24.91
2019-02-05T14:10:31.638Z,23.30
2019-02-05T14:12:59.656Z,21.58
2019-02-05T14:15:31.205Z,20.51
2019-02-05T14:17:59.353Z,19.79
2019-02-05T14:20:27.363Z,19.22
2019-02-05T14:22:55.434Z,20.13
2019-02-05T14:25:23.514Z,20.32
2019-02-05T14:27:51.511Z,20.07
2019-02-05T14:30:44.620Z,21.22
2019-02-05T14:33:12.640Z,20.50
2019-02-05T14:35:40.934Z,19.75
2019-02-05T14:38:09.412Z,19.86
2019-02-05T14:40:37.464Z,21.31
2019-02-05T14:43:06.411Z,20.54
2019-02-05T14:45:34.500Z,21.58
2019-02-05T14:48:02.891Z,19.72
2019-02-05T14:50:31.719Z,19.77
2019-02-05T14:52:59.667Z,19.41
2019-02-05T14:55:28.048Z,20.26
2019-02-05T14:57:56.485Z,22.28
2019-02-05T15:00:27.911Z,22.52
2019-02-05T15:02:57.567Z,23.98
2019-02-05T15:05:25.721Z,22.98
2019-02-05T15:07:54.056Z,24.78
2019-02-05T15:10:22.848Z,23.10
2019-02-05T15:12:51.149Z,22.19
2019-02-05T15:15:19.329Z,21.52
2019-02-05T15:17:47.780Z,20.01
2019-02-05T15:20:25.945Z,19.10
2019-02-05T15:22:53.927Z,18.87
2019-02-05T15:25:22.034Z,20.27
2019-02-05T15:27:50.071Z,25.58
2019-02-05T15:30:24.974Z,29.54
2019-02-05T15:33:12.617Z,28.63
2019-02-05T15:35:45.417Z,32.30
2019-02-05T15:38:13.487Z,33.08
2019-02-05T15:40:41.530Z,32.80
2019-02-05T15:43:09.499Z,33.61
2019-02-05T15:45:37.557Z,35.32
2019-02-05T15:48:05.646Z,34.58
2019-02-05T15:50:33.650Z,34.93
2019-02-05T15:53:01.753Z,35.98
2019-02-05T15:55:30.044Z,36.44
2019-02-05T15:57:58.338Z,37.95
2019-02-05T16:00:26.452Z,38.03
2019-02-05T16:02:54.535Z,38.58
2019-02-05T16:05:22.655Z,37.86
2019-02-05T16:07:50.939Z,38.78
2019-02-05T16:10:19.012Z,39.08
2019-02-05T16:12:47.083Z,40.82
2019-02-05T16:15:15.280Z,41.78
2019-02-05T16:17:43.268Z,43.01
2019-02-05T16:20:11.477Z,43.59
2019-02-05T16:22:39.562Z,44.46
2019-02-05T16:25:09.996Z,44.03
2019-02-05T16:27:37.996Z,45.88
2019-02-05T16:30:12.930Z,46.49
2019-02-05T16:32:41.093Z,47.41
2019-02-05T16:35:09.218Z,47.16
2019-02-05T16:37:37.267Z,47.21
2019-02-05T16:40:10.887Z,49.35
2019-02-05T16:42:38.908Z,48.15
2019-02-05T16:45:10.297Z,48.26
2019-02-05T16:47:38.394Z,49.84
2019-02-05T16:50:12.006Z,49.17
2019-02-05T16:52:40.063Z,50.47
2019-02-05T16:55:08.108Z,51.67
2019-02-05T16:57:36.201Z,50.91
2019-02-05T17:00:19.244Z,49.88
2019-02-05T17:02:47.303Z,51.06
2019-02-05T17:05:15.444Z,51.57
2019-02-05T17:07:43.765Z,52.00
2019-02-05T17:10:13.538Z,52.58
2019-02-05T17:12:41.977Z,53.32
2019-02-05T17:15:11.640Z,53.46
2019-02-05T17:17:39.743Z,54.54
2019-02-05T17:20:11.907Z,53.84
2019-02-05T17:22:40.239Z,54.42
2019-02-05T17:25:10.874Z,54.71
2019-02-05T17:27:39.383Z,54.37
2019-02-05T17:30:11.606Z,55.24
2019-02-05T17:32:40.525Z,55.37
2019-02-05T17:35:08.901Z,56.14
2019-02-05T17:37:36.906Z,57.10
2019-02-05T17:40:06.596Z,58.08
2019-02-05T17:42:34.855Z,56.69
2019-02-05T17:45:03.413Z,57.79
2019-02-05T17:47:31.526Z,57.63
2019-02-05T17:49:59.870Z,58.09
2019-02-05T17:52:27.926Z,58.75
2019-02-05T17:54:56.075Z,58.16
2019-02-05T17:57:24.182Z,58.61
2019-02-05T17:59:52.866Z,60.05
2019-02-05T18:02:21.103Z,60.92
2019-02-05T18:04:49.055Z,59.59
2019-02-05T18:07:17.460Z,59.59
2019-02-05T18:09:45.622Z,59.25
2019-02-05T18:12:13.746Z,59.94
2019-02-05T18:14:41.946Z,59.56
2019-02-05T18:17:10.292Z,60.17
2019-02-05T18:19:38.670Z,60.63
2019-02-05T18:22:08.051Z,61.34
2019-02-05T18:24:36.278Z,60.25
2019-02-05T18:27:05.744Z,62.23
2019-02-05T18:29:33.779Z,61.01
2019-02-05T18:32:02.223Z,61.11
2019-02-05T18:34:30.281Z,61.63
2019-02-05T18:36:58.425Z,61.37
2019-02-05T18:39:26.679Z,61.88
2019-02-05T18:41:55.055Z,61.95
2019-02-05T18:44:23.064Z,62.17
2019-02-05T18:46:51.271Z,62.37
2019-02-05T18:49:19.411Z,62.69
2019-02-05T18:51:47.530Z,63.32
2019-02-05T18:54:15.818Z,63.97
2019-02-05T18:56:43.789Z,63.37
2019-02-05T18:59:12.013Z,64.28
2019-02-05T19:01:40.175Z,63.81
2019-02-05T19:04:08.362Z,65.36
2019-02-05T19:06:36.585Z,64.21
2019-02-05T19:09:12.717Z,65.59
2019-02-05T19:11:40.855Z,65.02
2019-02-05T19:14:08.858Z,66.73
2019-02-05T19:16:36.878Z,66.61
2019-02-05T19:19:14.579Z,66.22
2019-02-05T19:21:36.926Z,64.99
2019-02-05T19:24:27.646Z,64.99
2019-02-05T19:26:55.747Z,64.84
2019-02-05T19:29:24.467Z,65.28
2019-02-05T19:31:53.062Z,65.89
2019-02-05T19:34:21.278Z,66.00
2019-02-05T19:36:49.982Z,66.55
2019-02-05T19:39:18.545Z,67.25
2019-02-05T19:41:48.074Z,67.45
2019-02-05T19:44:16.091Z,67.35
2019-02-05T19:47:02.248Z,67.53
2019-02-05T19:49:45.624Z,67.72
2019-02-05T19:52:13.904Z,67.86
2019-02-05T19:54:41.969Z,68.12
2019-02-05T19:57:10.097Z,68.78
2019-02-05T19:59:39.994Z,70.83
2019-02-05T20:02:09.438Z,69.02
2019-02-05T20:04:37.528Z,69.09
2019-02-05T20:07:06.699Z,68.95
2019-02-05T20:09:35.103Z,69.52
2019-02-05T20:12:03.693Z,69.28
2019-02-05T20:14:31.816Z,70.27
2019-02-05T20:17:00.237Z,72.27
2019-02-05T20:19:28.360Z,70.41
2019-02-05T20:21:56.407Z,70.32
2019-02-05T20:24:24.667Z,70.91
2019-02-05T20:26:53.891Z,70.78
2019-02-05T20:29:22.514Z,70.91
2019-02-05T20:31:50.611Z,72.90
2019-02-05T20:34:19.080Z,71.41
2019-02-05T20:36:47.666Z,70.56
2019-02-05T20:39:17.960Z,70.97
2019-02-05T20:41:46.020Z,70.97
2019-02-05T20:44:14.347Z,70.87
2019-02-05T20:46:42.441Z,71.77
2019-02-05T20:49:10.481Z,72.42
2019-02-05T20:51:38.485Z,72.87
2019-02-05T20:54:06.980Z,73.09
2019-02-05T20:56:35.280Z,73.01
2019-02-05T20:59:04.043Z,72.87
2019-02-05T21:01:32.252Z,72.84
2019-02-05T21:04:01.746Z,72.36
2019-02-05T21:06:30.300Z,72.82
2019-02-05T21:08:58.568Z,73.32
2019-02-05T21:11:27.044Z,73.07
2019-02-05T21:13:55.153Z,73.79
2019-02-05T21:16:23.241Z,73.65
2019-02-05T21:18:51.245Z,72.49
2019-02-05T21:21:19.606Z,72.10
2019-02-05T21:23:47.796Z,72.29
2019-02-05T21:26:16.002Z,73.39
2019-02-05T21:28:45.267Z,73.52
2019-02-05T21:31:14.809Z,73.77
2019-02-05T21:33:42.934Z,74.11
2019-02-05T21:36:11.229Z,74.88
2019-02-05T21:38:39.456Z,74.64
2019-02-05T21:41:07.581Z,75.32
2019-02-05T21:43:35.753Z,75.74
2019-02-05T21:46:04.184Z,75.19
2019-02-05T21:48:34.036Z,74.14
2019-02-05T21:51:02.358Z,74.10
2019-02-05T21:53:30.290Z,75.34
2019-02-05T21:55:58.395Z,75.41
2019-02-05T21:58:26.503Z,75.55
2019-02-05T22:00:54.501Z,74.70
2019-02-05T22:03:23.295Z,75.39
2019-02-05T22:05:54.062Z,76.27
2019-02-05T22:08:22.555Z,76.68
2019-02-05T22:10:50.718Z,75.92
2019-02-05T22:13:18.887Z,76.60
2019-02-05T22:15:46.998Z,77.37
2019-02-05T22:18:15.070Z,76.93
2019-02-05T22:20:44.473Z,77.20
2019-02-05T22:23:12.977Z,76.09
2019-02-05T22:25:40.996Z,76.50
2019-02-05T22:28:09.168Z,78.38
2019-02-05T22:30:37.404Z,77.62
2019-02-05T22:33:05.834Z,75.27
2019-02-05T22:35:34.591Z,76.04
2019-02-05T22:38:02.651Z,76.61
2019-02-05T22:40:30.690Z,77.27
2019-02-05T22:42:58.701Z,76.99
2019-02-05T22:45:28.825Z,77.56
2019-02-05T22:47:57.264Z,78.61
2019-02-05T22:50:27.768Z,77.50
2019-02-05T22:52:56.227Z,76.69
2019-02-05T22:55:24.537Z,76.58
2019-02-05T22:57:52.526Z,76.56
2019-02-05T23:00:51.042Z,76.62
2019-02-05T23:03:25.600Z,76.94
2019-02-05T23:06:44.637Z,78.54
2019-02-05T23:09:18.546Z,80.04
2019-02-05T23:12:27.589Z,79.47
2019-02-05T23:15:13.959Z,79.05
2019-02-05T23:17:42.133Z,79.70
2019-02-05T23:20:14.795Z,79.32
2019-02-05T23:22:43.013Z,79.17
2019-02-05T23:25:11.330Z,77.68
2019-02-05T23:27:39.496Z,77.35
2019-02-05T23:30:13.859Z,77.21
2019-02-05T23:32:41.983Z,77.18
2019-02-05T23:35:10.119Z,77.47
2019-02-05T23:37:38.263Z,77.69
2019-02-05T23:40:06.960Z,78.66
2019-02-05T23:42:35.219Z,79.05
2019-02-05T23:45:04.885Z,78.37
2019-02-05T23:47:33.086Z,77.80
2019-02-05T23:50:01.071Z,78.94
2019-02-05T23:52:29.149Z,79.87
2019-02-05T23:54:57.073Z,80.48
2019-02-05T23:57:25.198Z,80.66
2019-02-05T23:59:53.157Z,79.96
